Time;durP1;ratioP1;P1;durP2;ratioP2;P2;SDS_P1;SDS_P2;PMS_P1;PMS_P2;Temp;Humidity;BMP_temperature;BMP_pressure;BME280_temperature;BME280_humidity;BME280_pressure;Samples;Min_cycle;Max_cycle;Signal;HPM_P1;HPM_P2
2022/09/14 00:00:50;;;;;;;;;10.00;9.00;;;;;23.76;100.00;99814.84;4857046;29;45440;-83
2022/09/14 00:03:16;;;;;;;;;9.00;9.00;;;;;23.74;100.00;99811.34;4873208;29;45281;-84
2022/09/14 00:05:43;;;;;;;;;7.67;7.67;;;;;23.73;100.00;99805.97;4857631;29;45317;-83
2022/09/14 00:08:16;;;;;;;;;7.33;6.00;;;;;23.72;100.00;99796.97;4869407;29;48044;-84
2022/09/14 00:10:48;;;;;;;;;9.67;8.67;;;;;23.68;100.00;99781.81;4855190;29;45490;-84
2022/09/14 00:13:14;;;;;;;;;9.67;8.33;;;;;23.72;100.00;99785.25;4854463;29;45484;-84
2022/09/14 00:15:43;;;;;;;;;8.00;7.33;;;;;23.68;100.00;99779.09;4838248;29;45431;-84
2022/09/14 00:18:11;;;;;;;;;6.00;5.00;;;;;23.65;100.00;99776.56;4854052;29;45463;-84
2022/09/14 00:20:37;;;;;;;;;7.00;7.00;;;;;23.63;100.00;99773.06;4838238;29;45467;-84
2022/09/14 00:23:03;;;;;;;;;7.67;7.67;;;;;23.63;100.00;99769.44;4853246;29;44860;-84
2022/09/14 00:25:28;;;;;;;;;7.25;7.25;;;;;23.64;100.00;99765.78;4854666;29;44890;-84
2022/09/14 00:27:55;;;;;;;;;6.67;6.33;;;;;23.52;100.00;99761.91;4854245;29;47652;-84
2022/09/14 00:30:22;;;;;;;;;6.00;6.00;;;;;23.56;100.00;99771.63;4854471;29;44987;-83
2022/09/14 00:32:48;;;;;;;;;9.00;6.33;;;;;23.48;100.00;99761.19;4853510;29;45364;-84
2022/09/14 00:35:14;;;;;;;;;10.67;6.67;;;;;23.36;100.00;99746.47;4852786;29;45526;-84
2022/09/14 00:37:39;;;;;;;;;6.33;6.33;;;;;23.38;100.00;99759.09;4851086;29;47754;-83
2022/09/14 00:40:05;;;;;;;;;7.67;7.67;;;;;23.27;100.00;99749.69;4851573;29;45942;-83
2022/09/14 00:42:31;;;;;;;;;7.00;7.00;;;;;23.27;100.00;99749.69;4852114;29;45424;-83
2022/09/14 00:45:03;;;;;;;;;7.00;7.00;;;;;23.26;100.00;99756.06;4851230;29;45511;-83
2022/09/14 00:47:31;;;;;;;;;8.33;8.33;;;;;23.24;100.00;99747.13;4850711;29;47249;-84
2022/09/14 00:49:58;;;;;;;;;6.67;6.67;;;;;23.19;100.00;99742.91;4851574;29;45394;-83
2022/09/14 00:52:47;;;;;;;;;6.67;6.67;;;;;23.17;100.00;99724.91;4852354;29;44962;-84
2022/09/14 00:55:17;;;;;;;;;5.67;5.67;;;;;23.13;100.00;99720.59;4835981;29;45445;-83
2022/09/14 00:57:45;;;;;;;;;7.00;6.33;;;;;23.10;100.00;99709.03;4850692;29;47557;-83
2022/09/14 01:00:14;;;;;;;;;7.67;6.67;;;;;23.09;100.00;99715.44;4852994;29;45559;-83
2022/09/14 01:02:40;;;;;;;;;8.33;6.67;;;;;23.12;100.00;99721.56;4854929;29;45392;-83
2022/09/14 01:05:06;;;;;;;;;6.67;6.67;;;;;23.12;100.00;99715.25;4855375;29;45113;-83
2022/09/14 01:07:51;;;;;;;;;14.67;10.67;;;;;23.17;100.00;99710.47;4853861;29;46851;-83
2022/09/14 01:10:34;;;;;;;;;7.67;6.33;;;;;23.18;100.00;99701.38;4854782;29;45455;-83
2022/09/14 01:13:26;;;;;;;;;5.25;4.50;;;;;23.17;100.00;99692.34;4855612;29;45344;-83
2022/09/14 01:16:20;;;;;;;;;6.00;6.00;;;;;23.15;100.00;99687.97;4855574;29;44848;-83
2022/09/14 01:18:58;;;;;;;;;8.67;8.33;;;;;23.14;100.00;99692.50;4854273;29;47240;-83
2022/09/14 01:21:31;;;;;;;;;6.33;5.33;;;;;23.18;100.00;99704.06;4854713;29;45452;-83
2022/09/14 01:24:26;;;;;;;;;4.67;4.67;;;;;23.19;100.00;99710.38;4856362;29;45382;-83
2022/09/14 01:26:58;;;;;;;;;10.00;7.00;;;;;23.20;100.00;99704.88;4857218;29;45420;-83
2022/09/14 01:30:00;;;;;;;;;6.75;6.75;;;;;23.24;100.00;99687.47;4855071;29;45504;-83
2022/09/14 01:32:38;;;;;;;;;6.50;5.50;;;;;23.21;100.00;99665.94;4856856;29;45381;-83
2022/09/14 01:35:14;;;;;;;;;8.50;7.50;;;;;23.12;100.00;99658.31;4856446;29;45491;-83
2022/09/14 01:37:50;;;;;;;;;8.75;7.75;;;;;23.14;100.00;99653.66;4853582;29;45419;-83
2022/09/14 01:40:23;;;;;;;;;6.00;6.00;;;;;23.12;100.00;99661.00;4854624;29;45544;-83
2022/09/14 01:42:54;;;;;;;;;5.50;5.00;;;;;23.10;100.00;99688.22;4838564;29;45928;-83
2022/09/14 01:45:22;;;;;;;;;6.50;6.50;;;;;23.13;100.00;99708.88;4854654;29;45309;-83
2022/09/14 01:47:59;;;;;;;;;6.00;6.00;;;;;23.14;100.00;99714.22;4853487;29;45579;-83
2022/09/14 01:50:32;;;;;;;;;7.25;5.25;;;;;23.12;100.00;99689.00;4837793;29;47151;-84
2022/09/14 01:53:10;;;;;;;;;5.00;5.00;;;;;23.14;100.00;99697.94;4850730;29;45742;-84
2022/09/14 01:55:44;;;;;;;;;6.00;5.75;;;;;23.13;100.00;99684.47;4853096;29;45493;-85
2022/09/14 01:58:19;;;;;;;;;5.25;4.75;;;;;23.09;100.00;99682.91;4851853;29;45410;-82
2022/09/14 02:00:47;;;;;;;;;3.75;3.00;;;;;23.05;100.00;99662.31;4852632;29;45467;-83
2022/09/14 02:03:18;;;;;;;;;5.50;4.25;;;;;22.95;100.00;99651.94;4852203;29;45407;-83
2022/09/14 02:05:53;;;;;;;;;4.00;4.00;;;;;22.96;100.00;99675.38;4853925;29;45326;-84
2022/09/14 02:08:18;;;;;;;;;5.00;4.00;;;;;22.97;100.00;99689.81;4855513;29;45573;-84
2022/09/14 02:10:44;;;;;;;;;4.00;4.00;;;;;22.97;100.00;99685.28;4869697;29;46781;-84
2022/09/14 02:13:09;;;;;;;;;5.00;5.00;;;;;22.96;100.00;99694.34;4854725;29;45427;-83
2022/09/14 02:15:36;;;;;;;;;6.25;6.25;;;;;22.96;100.00;99694.34;4872273;29;45272;-84
2022/09/14 02:18:02;;;;;;;;;4.75;4.75;;;;;22.94;100.00;99681.84;4871562;29;45511;-84
2022/09/14 02:20:28;;;;;;;;;5.75;5.50;;;;;22.91;100.00;99679.31;4869875;29;46765;-84
2022/09/14 02:22:53;;;;;;;;;6.75;3.25;;;;;22.90;100.00;99669.41;4855869;29;45818;-84
2022/09/14 02:25:20;;;;;;;;;5.00;5.00;;;;;22.88;100.00;99684.88;4856401;29;44790;-84
2022/09/14 02:27:47;;;;;;;;;4.75;4.75;;;;;22.81;100.00;99684.34;4874630;29;45409;-84
2022/09/14 02:30:12;;;;;;;;;4.00;3.25;;;;;22.82;100.00;99696.06;4876516;29;45868;-84
2022/09/14 02:32:44;;;;;;;;;3.75;3.75;;;;;22.88;100.00;99709.28;4874844;29;45432;-83
2022/09/14 02:35:25;;;;;;;;;4.75;4.75;;;;;22.90;100.00;99710.06;4874493;29;45831;-84
2022/09/14 02:38:52;;;;;;;;;5.50;5.50;;;;;22.88;100.00;99702.03;4874087;29;45485;-84
2022/09/14 02:41:29;;;;;;;;;6.25;5.75;;;;;22.82;100.00;99707.78;4790096;29;45381;-84
2022/09/14 02:44:30;;;;;;;;;5.00;5.00;;;;;22.81;100.00;99706.03;4797213;29;45459;-83
2022/09/14 02:47:01;;;;;;;;;5.00;5.00;;;;;22.85;100.00;99713.03;4798436;29;44796;-83
2022/09/14 02:49:38;;;;;;;;;6.00;5.00;;;;;22.89;100.00;99713.75;4800187;29;45600;-84
2022/09/14 02:52:30;;;;;;;;;4.00;4.00;;;;;22.89;100.00;99703.78;4799338;29;46199;-84
2022/09/14 02:54:57;;;;;;;;;4.00;4.00;;;;;22.88;100.00;99699.31;4781452;29;45920;-83
2022/09/14 02:57:23;;;;;;;;;3.00;3.00;;;;;22.87;100.00;99694.84;4799146;29;45257;-83
2022/09/14 02:59:49;;;;;;;;;5.00;5.00;;;;;22.91;100.00;99701.88;4799654;29;45383;-83
2022/09/14 03:02:14;;;;;;;;;3.33;3.33;;;;;22.91;100.00;99704.59;4800427;29;45540;-83
2022/09/14 03:04:39;;;;;;;;;3.75;3.75;;;;;22.86;100.00;99684.97;4797947;29;45666;-83
2022/09/14 03:07:05;;;;;;;;;3.67;3.67;;;;;22.85;100.00;99685.94;4798838;29;45039;-84
2022/09/14 03:09:30;;;;;;;;;5.33;3.67;;;;;22.87;100.00;99681.31;4798494;29;45407;-84
2022/09/14 03:11:56;;;;;;;;;6.00;5.00;;;;;22.91;100.00;99701.00;4798886;29;45353;-83
2022/09/14 03:14:21;;;;;;;;;4.67;4.00;;;;;22.91;100.00;99704.59;4796891;29;44865;-83
2022/09/14 03:16:47;;;;;;;;;3.75;3.75;;;;;22.93;100.00;99699.09;4846795;29;45357;-83
2022/09/14 03:19:12;;;;;;;;;6.67;6.33;;;;;22.92;100.00;99708.16;4869955;29;45513;-83
2022/09/14 03:21:38;;;;;;;;;5.25;5.25;;;;;22.92;100.00;99700.03;4869546;29;45493;-83
2022/09/14 03:24:05;;;;;;;;;6.00;6.00;;;;;22.91;100.00;99704.59;4869579;29;46307;-84
2022/09/14 03:26:30;;;;;;;;;4.50;4.50;;;;;22.89;100.00;99692.06;4873212;29;45388;-83
2022/09/14 03:28:57;;;;;;;;;4.00;4.00;;;;;22.89;100.00;99694.78;4871919;29;44851;-83
2022/09/14 03:31:24;;;;;;;;;5.00;5.00;;;;;22.86;100.00;99697.66;4871025;29;45645;-83
2022/09/14 03:33:58;;;;;;;;;7.00;7.00;;;;;22.83;100.00;99685.13;4871259;29;44884;-83
2022/09/14 03:36:26;;;;;;;;;4.50;4.50;;;;;22.74;100.00;99678.38;4871279;29;45499;-83
2022/09/14 03:38:56;;;;;;;;;5.50;4.00;;;;;22.71;100.00;99672.25;4872182;29;44860;-83
2022/09/14 03:41:23;;;;;;;;;5.00;5.00;;;;;22.69;100.00;99680.44;4868613;29;46894;-83
2022/09/14 03:43:48;;;;;;;;;4.75;4.75;;;;;22.65;100.00;99669.84;4870475;29;45410;-83
2022/09/14 03:46:22;;;;;;;;;5.00;5.00;;;;;22.66;100.00;99672.50;4871041;29;45292;-84
2022/09/14 03:48:47;;;;;;;;;4.00;4.00;;;;;22.64;100.00;99684.34;4869605;29;45420;-83
2022/09/14 03:51:13;;;;;;;;;6.00;5.00;;;;;22.66;100.00;99675.22;4871328;29;45466;-84
2022/09/14 03:53:40;;;;;;;;;4.00;4.00;;;;;22.66;100.00;99691.47;4869096;29;45547;-83
2022/09/14 03:56:11;;;;;;;;;4.67;4.67;;;;;22.66;100.00;99679.72;4868617;29;44861;-84
2022/09/14 03:58:37;;;;;;;;;6.00;6.00;;;;;22.66;100.00;99693.28;4868934;29;45555;-83
2022/09/14 04:01:08;;;;;;;;;5.00;5.00;;;;;22.68;100.00;99702.19;4870732;29;45457;-82
2022/09/14 04:03:34;;;;;;;;;5.67;5.67;;;;;22.64;100.00;99693.34;4869347;29;44782;-83
2022/09/14 04:06:04;;;;;;;;;5.33;4.00;;;;;22.59;100.00;99694.56;4854297;29;45681;-83
2022/09/14 04:08:34;;;;;;;;;4.67;4.67;;;;;22.50;100.00;99675.13;4868424;29;45450;-83
2022/09/14 04:11:00;;;;;;;;;6.00;6.00;;;;;22.52;100.00;99696.72;4868929;29;48319;-83
2022/09/14 04:13:25;;;;;;;;;4.33;4.33;;;;;22.41;100.00;99691.84;4870403;29;45468;-83
2022/09/14 04:15:59;;;;;;;;;6.00;6.00;;;;;22.42;100.00;99690.00;4853832;29;45539;-83
2022/09/14 04:18:26;;;;;;;;;5.00;5.00;;;;;22.39;100.00;99677.50;4870736;29;45385;-83
2022/09/14 04:21:02;;;;;;;;;3.33;3.33;;;;;22.37;100.00;99677.59;4868007;29;45409;-83
2022/09/14 04:23:28;;;;;;;;;4.33;3.67;;;;;22.32;100.00;99659.84;4870747;29;45495;-82
2022/09/14 04:25:54;;;;;;;;;6.33;4.33;;;;;22.35;100.00;99665.09;4869324;29;45529;-83
2022/09/14 04:28:22;;;;;;;;;7.00;5.67;;;;;22.33;100.00;99667.00;4869873;29;45355;-83
2022/09/14 04:30:57;;;;;;;;;9.33;7.00;;;;;22.32;100.00;99662.56;4871991;29;45161;-83
2022/09/14 04:33:24;;;;;;;;;8.00;5.00;;;;;22.33;100.00;99658.88;4873315;29;45292;-83
2022/09/14 04:36:00;;;;;;;;;5.33;5.33;;;;;22.29;100.00;99651.84;4859359;29;45403;-83
2022/09/14 04:38:30;;;;;;;;;6.50;5.50;;;;;22.29;100.00;99654.56;4874990;29;45323;-83
2022/09/14 04:40:56;;;;;;;;;7.67;6.33;;;;;22.25;100.00;99645.72;4874869;29;45586;-82
2022/09/14 04:43:22;;;;;;;;;6.00;6.00;;;;;22.22;100.00;99663.91;4874393;29;44816;-83
2022/09/14 04:45:47;;;;;;;;;8.00;6.33;;;;;22.20;100.00;99645.06;4874215;29;45348;-84
2022/09/14 04:48:14;;;;;;;;;5.67;5.67;;;;;22.20;100.00;99666.72;4875431;29;45389;-83
2022/09/14 04:50:40;;;;;;;;;9.00;7.75;;;;;22.18;100.00;99652.38;4873365;29;48684;-83
2022/09/14 04:53:05;;;;;;;;;6.00;6.00;;;;;22.21;100.00;99657.63;4873986;29;45331;-83
2022/09/14 04:55:31;;;;;;;;;7.67;5.67;;;;;22.19;100.00;99656.84;4875448;29;45484;-83
2022/09/14 04:57:56;;;;;;;;;8.00;8.00;;;;;22.18;100.00;99655.97;4875611;29;45455;-83
2022/09/14 05:00:22;;;;;;;;;5.33;5.00;;;;;22.15;100.00;99658.81;4873155;29;47993;-83
2022/09/14 05:02:54;;;;;;;;;5.00;3.67;;;;;22.15;100.00;99647.97;4872753;29;45523;-83
2022/09/14 05:05:19;;;;;;;;;4.50;4.00;;;;;22.15;100.00;99637.16;4873723;29;45504;-82
2022/09/14 05:07:44;;;;;;;;;6.67;6.00;;;;;22.14;100.00;99630.00;4873388;29;45588;-83
2022/09/14 05:10:10;;;;;;;;;6.00;6.00;;;;;22.15;100.00;99639.84;4857714;29;46735;-82
2022/09/14 05:12:36;;;;;;;;;6.33;6.33;;;;;22.12;100.00;99626.50;4874920;29;45573;-83
2022/09/14 05:15:01;;;;;;;;;5.33;5.00;;;;;22.11;100.00;99627.44;4875292;29;45391;-83
2022/09/14 05:17:27;;;;;;;;;5.00;5.00;;;;;22.10;100.00;99628.41;4875222;29;45390;-83
2022/09/14 05:19:52;;;;;;;;;6.33;6.33;;;;;22.05;100.00;99608.78;4874768;29;46934;-83
2022/09/14 05:22:20;;;;;;;;;5.75;5.75;;;;;22.03;100.00;99613.41;4873403;29;45429;-83
2022/09/14 05:24:46;;;;;;;;;5.67;5.67;;;;;21.92;100.00;99597.72;4873307;29;45346;-83
2022/09/14 05:27:11;;;;;;;;;7.67;7.00;;;;;21.97;100.00;99616.44;4874095;29;45473;-83
2022/09/14 05:29:39;;;;;;;;;6.00;6.00;;;;;22.01;100.00;99614.47;4872875;29;46059;-83
2022/09/14 05:32:05;;;;;;;;;4.33;4.33;;;;;22.04;100.00;99612.47;4874973;29;45440;-83
2022/09/14 05:34:30;;;;;;;;;6.67;6.67;;;;;22.01;100.00;99596.38;4874134;29;45319;-83
2022/09/14 05:36:56;;;;;;;;;5.00;4.67;;;;;22.00;100.00;99596.47;4858799;29;45335;-83
2022/09/14 05:39:21;;;;;;;;;5.67;5.67;;;;;22.00;100.00;99601.88;4875732;29;45319;-83
2022/09/14 05:41:48;;;;;;;;;10.00;6.67;;;;;21.92;100.00;99594.16;4875171;29;45409;-82
2022/09/14 05:44:14;;;;;;;;;7.00;7.00;;;;;21.97;100.00;99613.72;4875547;29;45447;-82
2022/09/14 05:46:39;;;;;;;;;6.33;6.33;;;;;21.96;100.00;99614.69;4875649;29;44819;-82
2022/09/14 05:49:05;;;;;;;;;8.00;8.00;;;;;22.00;100.00;99610.88;4876396;29;45387;-82
2022/09/14 05:51:30;;;;;;;;;10.00;8.00;;;;;22.01;100.00;99623.44;4860000;29;45828;-82
2022/09/14 05:53:57;;;;;;;;;8.67;8.67;;;;;22.06;100.00;99643.06;4859425;29;44913;-83
2022/09/14 05:56:26;;;;;;;;;9.00;8.67;;;;;22.00;100.00;99637.97;4874524;29;45446;-82
2022/09/14 05:58:51;;;;;;;;;8.67;8.67;;;;;22.06;100.00;99637.66;4873398;29;47146;-85
2022/09/14 06:01:23;;;;;;;;;8.00;8.00;;;;;22.16;100.00;99648.88;4858530;29;45476;-85
2022/09/14 06:03:52;;;;;;;;;7.25;7.25;;;;;22.19;100.00;99656.84;4873113;29;45326;-85
2022/09/14 06:06:19;;;;;;;;;7.33;6.67;;;;;22.20;100.00;99655.00;4875415;29;45440;-84
2022/09/14 06:08:48;;;;;;;;;8.33;6.67;;;;;22.18;100.00;99647.84;4873946;29;45628;-85
2022/09/14 06:11:23;;;;;;;;;8.67;8.67;;;;;22.21;100.00;99652.22;4873877;29;45328;-84
2022/09/14 06:13:48;;;;;;;;;11.00;11.00;;;;;22.23;100.00;99642.19;4873234;29;45398;-85
2022/09/14 06:16:16;;;;;;;;;5.67;5.67;;;;;22.32;100.00;99659.84;4875323;29;45408;-85
2022/09/14 06:18:43;;;;;;;;;9.00;7.67;;;;;22.27;100.00;99645.66;4874617;29;45156;-85
2022/09/14 06:21:11;;;;;;;;;7.33;7.33;;;;;22.39;100.00;99663.97;4874593;29;45417;-86
2022/09/14 06:23:37;;;;;;;;;7.00;7.00;;;;;22.41;100.00;99667.47;4858336;29;45434;-86
2022/09/14 06:26:04;;;;;;;;;9.67;9.00;;;;;22.43;100.00;99664.69;4872433;29;45324;-86
2022/09/14 06:28:33;;;;;;;;;5.67;5.67;;;;;22.38;100.00;99643.25;4883194;29;46626;-88
2022/09/14 06:35:16;;;;;;;;;6.00;6.00;;;;;22.45;100.00;99639.25;4897568;29;44817;-87
2022/09/14 06:37:42;;;;;;;;;6.75;5.75;;;;;22.49;100.00;99639.97;4894561;29;45291;-86
2022/09/14 06:40:08;;;;;;;;;6.67;6.00;;;;;22.49;100.00;99635.44;4894217;29;45430;-86
2022/09/14 06:42:33;;;;;;;;;4.25;4.25;;;;;22.52;100.00;99645.22;4892628;29;45234;-86
2022/09/14 06:44:59;;;;;;;;;8.00;8.00;;;;;22.51;100.00;99648.91;4876773;29;45412;-86
2022/09/14 06:47:24;;;;;;;;;10.33;7.67;;;;;22.54;100.00;99655.03;4876219;29;45335;-86
2022/09/14 06:49:50;;;;;;;;;4.50;4.50;;;;;22.53;100.00;99650.56;4897505;29;45325;-86
2022/09/14 06:52:15;;;;;;;;;8.00;6.00;;;;;22.53;100.00;99642.44;4892060;29;45435;-86
2022/09/14 06:54:41;;;;;;;;;6.00;6.00;;;;;22.65;100.00;99659.03;4875452;29;45344;-87
2022/09/14 06:57:06;;;;;;;;;6.67;6.67;;;;;22.75;100.00;99660.28;4892504;29;45267;-86
2022/09/14 06:59:33;;;;;;;;;8.00;7.00;;;;;22.82;100.00;99653.56;4892633;29;45426;-86
2022/09/14 07:02:04;;;;;;;;;9.33;8.33;;;;;22.85;100.00;99642.56;4891299;29;46316;-85
2022/09/14 07:04:30;;;;;;;;;8.33;8.00;;;;;23.00;100.00;99656.22;4877117;29;45430;-85
2022/09/14 07:06:55;;;;;;;;;7.00;7.00;;;;;23.01;100.00;99642.59;4894344;29;45362;-86
2022/09/14 07:09:21;;;;;;;;;8.00;8.00;;;;;23.16;100.00;99668.03;4895230;29;45005;-87
2022/09/14 07:11:47;;;;;;;;;8.67;8.00;;;;;23.21;100.00;99662.34;4892737;29;44808;-86
2022/09/14 07:14:13;;;;;;;;;10.33;8.67;;;;;23.11;100.00;99643.00;4894155;29;45296;-87
2022/09/14 07:16:45;;;;;;;;;10.33;9.00;;;;;23.10;100.00;99647.53;4897245;29;44896;-86
2022/09/14 07:19:18;;;;;;;;;11.00;9.00;;;;;23.05;100.00;99643.34;4873577;29;45335;-87
2022/09/14 07:21:53;;;;;;;;;7.00;7.00;;;;;23.20;100.00;99658.75;4894856;29;45644;-87
2022/09/14 07:24:55;;;;;;;;;6.33;6.33;;;;;23.25;100.00;99669.34;4879128;29;44926;-87
2022/09/14 07:27:21;;;;;;;;;9.00;8.00;;;;;23.05;100.00;99635.22;4892447;29;45432;-86
2022/09/14 07:30:47;;;;;;;;;10.67;10.00;;;;;23.30;100.00;99665.41;4875439;29;46872;-85
2022/09/14 07:33:12;;;;;;;;;10.33;9.33;;;;;23.28;100.00;99664.63;4855855;29;45052;-84
2022/09/14 07:35:51;;;;;;;;;9.33;9.00;;;;;23.22;100.00;99677.66;4860671;29;45768;-85
2022/09/14 07:38:17;;;;;;;;;7.33;7.33;;;;;23.20;100.00;99666.88;4876529;29;45455;-85
2022/09/14 07:41:08;;;;;;;;;9.00;9.00;;;;;23.15;100.00;99644.59;4875441;29;46070;-86
2022/09/14 07:43:38;;;;;;;;;12.00;10.67;;;;;23.27;100.00;99649.31;4853944;29;45186;-86
2022/09/14 07:46:15;;;;;;;;;10.00;10.00;;;;;23.51;100.00;99674.22;4883190;29;45319;-86
2022/09/14 07:48:56;;;;;;;;;7.50;7.50;;;;;23.49;100.00;99653.53;4846782;29;44983;-83
2022/09/14 07:51:30;;;;;;;;;7.33;7.33;;;;;23.61;100.00;99658.25;4859715;29;45310;-85
2022/09/14 07:54:00;;;;;;;;;8.00;6.00;;;;;23.78;100.00;99680.91;4876300;29;45436;-84
2022/09/14 07:56:28;;;;;;;;;7.67;7.67;;;;;23.64;100.00;99654.50;4861996;29;44946;-84
2022/09/14 07:59:04;;;;;;;;;6.33;6.33;;;;;23.81;100.00;99678.00;4879002;29;44830;-85
2022/09/14 08:01:31;;;;;;;;;5.00;5.00;;;;;23.91;100.00;99692.78;4878463;29;45687;-84
2022/09/14 08:04:06;;;;;;;;;7.33;6.00;;;;;23.87;100.00;99692.06;4876802;29;45395;-84
2022/09/14 08:06:41;;;;;;;;;7.00;7.00;;;;;23.78;100.00;99656.47;4861279;29;45480;-86
2022/09/14 08:09:13;;;;;;;;;7.67;7.67;;;;;23.90;100.00;99658.47;4856186;29;45356;-83
2022/09/14 08:11:52;;;;;;;;;;;;;;;;;;;;;
2022/09/14 08:14:19;;;;;;;;;6.33;6.33;;;;;24.52;100.00;99702.78;4858748;29;72063;-85
2022/09/14 08:16:53;;;;;;;;;7.25;4.75;;;;;24.77;100.00;99714.88;4844771;29;44782;-85
2022/09/14 08:19:27;;;;;;;;;7.00;7.00;;;;;24.82;100.00;99684.69;4858515;29;44924;-83
2022/09/14 08:25:30;;;;;;;;;8.33;5.67;;;;;25.23;100.00;99681.22;4858449;29;45369;-86
2022/09/14 08:28:47;;;;;;;;;5.67;5.67;;;;;25.54;100.00;99702.78;4857519;29;44896;-85
2022/09/14 08:31:50;;;;;;;;;;;;;;;;;;;;;
2022/09/14 08:34:25;;;;;;;;;7.25;5.75;;;;;26.24;100.00;99731.84;4777537;29;74364;-86
2022/09/14 08:47:17;;;;;;;;;6.25;6.00;;;;;26.63;100.00;99702.00;4764150;29;45768;-85
2022/09/14 08:50:02;;;;;;;;;7.00;7.00;;;;;26.92;100.00;99736.31;4764012;29;45384;-84
2022/09/14 08:53:29;;;;;;;;;5.25;5.25;;;;;26.67;100.00;99700.81;4766966;29;45550;-86
2022/09/14 08:56:45;;;;;;;;;4.75;4.75;;;;;26.84;100.00;99733.22;4772604;29;44902;-85
2022/09/14 09:00:04;;;;;;;;;9.67;8.33;;;;;26.78;100.00;99744.56;4764380;29;45159;-86
2022/09/14 09:02:38;;;;;;;;;6.67;6.67;;;;;26.39;100.00;99701.78;4801653;29;45410;-85
2022/09/14 09:05:51;;;;;;;;;14.67;14.67;;;;;26.32;100.00;99712.25;4803808;29;45486;-86
2022/09/14 09:13:18;;;;;;;;;;;;;;;;;;;;;
2022/09/14 09:16:10;;;;;;;;;;;;;;;;;;;;;
2022/09/14 09:19:56;;;;;;;;;;;;;;;;;;;;;
2022/09/14 09:26:25;;;;;;;;;9.00;8.00;;;;;26.45;100.00;99740.41;4736517;30;45580;-86
2022/09/14 09:28:53;;;;;;;;;10.67;8.00;;;;;26.48;100.00;99745.66;4736089;30;45301;-86
2022/09/14 09:31:46;;;;;;;;;5.67;4.67;;;;;26.52;100.00;99741.75;4746027;29;44836;-86
2022/09/14 09:34:36;;;;;;;;;7.00;5.00;;;;;26.51;100.00;99744.59;4740254;30;44964;-86
2022/09/14 09:37:14;;;;;;;;;4.00;4.00;;;;;26.29;100.00;99710.59;4748606;30;45432;-85
2022/09/14 09:39:58;;;;;;;;;4.00;4.00;;;;;26.45;100.00;99728.63;4738017;30;44865;-85
2022/09/14 09:42:27;;;;;;;;;40.00;31.67;;;;;26.48;99.24;99728.41;4766645;29;45429;-85
2022/09/14 09:45:09;;;;;;;;;4.33;4.33;;;;;26.44;96.88;99708.69;4750798;29;45425;-86
2022/09/14 09:47:39;;;;;;;;;10.33;10.33;;;;;26.51;96.15;99730.94;4759877;29;45439;-86
2022/09/14 09:50:17;;;;;;;;;6.67;6.00;;;;;26.55;98.01;99711.53;4763011;29;45395;-86
2022/09/14 09:52:57;;;;;;;;;5.50;4.00;;;;;26.51;96.49;99701.81;4799033;29;44998;-85
2022/09/14 09:55:37;;;;;;;;;6.67;6.00;;;;;26.47;97.82;99699.41;4825015;29;44878;-87
2022/09/14 10:02:17;;;;;;;;;7.00;7.00;;;;;26.91;97.25;99748.19;4840047;29;44766;-86
2022/09/14 10:08:36;;;;;;;;;7.67;7.33;;;;;26.91;94.02;99728.22;4863809;29;45385;-85
2022/09/14 10:11:56;;;;;;;;;;;;;;;;;;;;;
2022/09/14 10:14:55;;;;;;;;;6.00;6.00;;;;;26.72;92.14;99709.53;4783561;29;71824;-87
2022/09/14 10:17:24;;;;;;;;;5.67;5.67;;;;;26.61;93.52;99693.91;4842663;29;45407;-86
2022/09/14 10:19:58;;;;;;;;;5.00;5.00;;;;;26.67;93.81;99707.13;4840170;29;45541;-86
2022/09/14 10:22:42;;;;;;;;;4.33;4.33;;;;;26.81;92.03;99718.94;4825912;29;45557;-85
2022/09/14 10:25:13;;;;;;;;;4.00;4.00;;;;;26.79;92.08;99718.16;4857287;29;45505;-85
2022/09/14 10:31:16;;;;;;;;;6.33;4.67;;;;;26.53;90.58;99671.72;4826709;29;44942;-85
2022/09/14 10:34:21;;;;;;;;;3.67;3.67;;;;;26.79;91.76;99710.84;4845122;29;45060;-85
2022/09/14 10:37:06;;;;;;;;;3.67;3.67;;;;;26.78;90.45;99695.44;4812105;29;45436;-85
2022/09/14 10:39:51;;;;;;;;;6.67;5.00;;;;;26.77;87.96;99690.13;4818861;29;45469;-85
2022/09/14 10:42:24;;;;;;;;;3.75;3.75;;;;;26.79;88.48;99704.53;4819062;29;44837;-83
2022/09/14 10:44:59;;;;;;;;;3.75;3.00;;;;;26.76;89.86;99691.97;4820536;29;45400;-83
2022/09/14 10:47:27;;;;;;;;;4.00;4.00;;;;;26.79;89.68;99694.50;4819691;29;45501;-84
2022/09/14 10:50:14;;;;;;;;;4.00;4.00;;;;;26.92;89.04;99684.47;4821180;29;45687;-84
2022/09/14 10:53:06;;;;;;;;;4.00;2.25;;;;;27.06;87.95;99674.41;4804451;29;45562;-84
2022/09/14 10:55:50;;;;;;;;;3.50;3.25;;;;;27.22;86.95;99685.97;4804175;29;45457;-85
2022/09/14 10:58:40;;;;;;;;;5.00;5.00;;;;;27.32;86.18;99683.47;4805534;29;45438;-84
2022/09/14 11:04:40;;;;;;;;;7.33;5.67;;;;;27.61;86.66;99662.25;4819919;29;44795;-84
2022/09/14 11:07:32;;;;;;;;;2.00;2.00;;;;;27.75;85.92;99674.84;4818801;29;45378;-87
2022/09/14 11:10:29;;;;;;;;;4.00;4.00;;;;;27.83;85.07;99669.69;4783553;29;45514;-83
2022/09/14 11:13:22;;;;;;;;;3.25;3.25;;;;;27.94;85.36;99666.19;4783834;29;45415;-83
2022/09/14 11:16:10;;;;;;;;;3.67;3.67;;;;;28.03;84.14;99679.16;4806333;29;44821;-82
2022/09/14 11:18:58;;;;;;;;;3.67;3.67;;;;;28.09;83.27;99678.69;4795634;29;45191;-82
2022/09/14 11:21:48;;;;;;;;;4.75;4.25;;;;;28.21;83.14;99667.81;4782579;29;45487;-82
2022/09/14 11:24:55;;;;;;;;;4.33;4.00;;;;;28.41;82.25;99678.09;4796172;29;45549;-83
2022/09/14 11:27:25;;;;;;;;;5.00;5.00;;;;;28.57;82.74;99666.00;4781503;29;44880;-81
2022/09/14 11:30:03;;;;;;;;;3.67;3.67;;;;;28.71;81.76;99674.00;4781784;29;47740;-82
2022/09/14 11:32:55;;;;;;;;;3.25;3.25;;;;;28.91;82.50;99673.28;4802376;29;44988;-83
2022/09/14 11:35:36;;;;;;;;;6.00;5.00;;;;;28.98;80.13;99653.63;4769974;29;45448;-83
2022/09/14 11:38:16;;;;;;;;;4.00;4.00;;;;;29.16;79.70;99670.47;4779839;29;45477;-83
2022/09/14 11:40:59;;;;;;;;;3.00;2.00;;;;;29.12;78.90;99658.91;4787354;29;45499;-83
2022/09/14 11:43:49;;;;;;;;;2.25;2.25;;;;;29.23;79.26;99672.59;4779713;29;44777;-82
2022/09/14 11:46:22;;;;;;;;;4.00;4.00;;;;;29.38;78.62;99678.69;4780956;29;45547;-81
2022/09/14 11:49:00;;;;;;;;;3.00;1.00;;;;;29.57;77.51;99669.84;4798499;29;45535;-82
2022/09/14 11:51:55;;;;;;;;;7.00;6.00;;;;;29.88;75.17;99670.06;4779399;29;45603;-83
2022/09/14 11:54:24;;;;;;;;;3.50;3.50;;;;;30.06;75.95;99663.03;4792987;29;45442;-82
2022/09/14 11:57:19;;;;;;;;;3.33;3.33;;;;;30.21;75.02;99673.69;4778312;29;44942;-84
2022/09/14 11:59:57;;;;;;;;;2.00;2.00;;;;;30.36;73.14;99672.44;4782258;29;45452;-84
2022/09/14 12:02:26;;;;;;;;;2.33;2.33;;;;;30.29;72.34;99668.44;4784480;29;46822;-84
2022/09/14 12:05:07;;;;;;;;;3.00;3.00;;;;;30.28;71.95;99670.31;4785391;29;45508;-84
2022/09/14 12:07:49;;;;;;;;;3.00;3.00;;;;;30.25;70.18;99661.47;4823555;29;45353;-85
2022/09/14 12:11:02;;;;;;;;;1.67;1.67;;;;;30.17;69.97;99677.72;4875978;29;45366;-86
2022/09/14 12:14:17;;;;;;;;;2.50;1.00;;;;;29.97;63.08;99663.81;4857089;29;45724;-87
2022/09/14 12:17:13;;;;;;;;;2.00;2.00;;;;;29.69;64.33;99668.84;4800850;29;45475;-86
2022/09/14 12:20:23;;;;;;;;;3.75;2.00;;;;;29.54;62.34;99669.22;4817750;29;45349;-86
2022/09/14 12:23:06;;;;;;;;;2.00;2.00;;;;;29.40;63.74;99642.97;4806297;29;45048;-84
2022/09/14 12:25:35;;;;;;;;;1.25;1.00;;;;;29.35;62.83;99639.72;4820134;29;45644;-84
2022/09/14 12:28:04;;;;;;;;;1.00;1.00;;;;;29.25;63.03;99640.50;4821288;29;45523;-84
2022/09/14 12:30:44;;;;;;;;;2.00;2.00;;;;;29.47;61.93;99658.78;4795258;29;45479;-85
2022/09/14 12:33:32;;;;;;;;;0.50;0.00;;;;;29.47;60.44;99657.88;4804174;29;45439;-85
2022/09/14 12:36:12;;;;;;;;;1.00;1.00;;;;;29.43;60.90;99650.91;4817791;29;45486;-84
2022/09/14 12:39:05;;;;;;;;;3.50;2.00;;;;;29.44;60.58;99655.41;4817236;29;45821;-85
2022/09/14 12:42:19;;;;;;;;;0.75;0.75;;;;;29.50;58.60;99654.91;4810405;29;45474;-86
2022/09/14 12:44:45;;;;;;;;;1.75;1.75;;;;;29.52;61.28;99614.56;4818085;29;45699;-85
2022/09/14 12:47:40;;;;;;;;;1.25;1.25;;;;;29.69;60.17;99633.22;4816390;29;46981;-84
2022/09/14 12:50:18;;;;;;;;;1.25;1.25;;;;;29.71;59.63;99647.69;4816754;29;45473;-82
2022/09/14 12:53:29;;;;;;;;;1.50;1.50;;;;;29.29;60.08;99581.72;4819683;29;44907;-84